createdAt,value
2023-01-31T00:32:38.694Z,100855.18
2023-01-31T00:38:38.351Z,100861.96
2023-01-31T00:40:38.156Z,100862.71
2023-01-31T00:41:38.894Z,100865.79
2023-01-31T00:42:38.201Z,100862.7
2023-01-31T00:43:37.555Z,100863.43
2023-01-31T00:44:37.410Z,100866.53
2023-01-31T00:45:37.306Z,100862.7
2023-01-31T00:46:38.545Z,100866.96
2023-01-31T00:47:37.218Z,100868.43
2023-01-31T00:48:38.136Z,100864.07
2023-01-31T00:49:37.936Z,100861.53
2023-01-31T00:50:38.082Z,100858.77
2023-01-31T00:51:37.995Z,100859.18
2023-01-31T00:52:37.349Z,100853.06
2023-01-31T00:53:37.254Z,100854.39
2023-01-31T00:54:36.035Z,100855.9
2023-01-31T00:55:37.007Z,100854.74
2023-01-31T00:56:36.907Z,100857.26
2023-01-31T00:57:36.020Z,100856.31
2023-01-31T00:58:36.131Z,100862.71
2023-01-31T00:59:35.897Z,100864.23
2023-01-31T01:00:38.382Z,100868.17
2023-01-31T01:01:36.510Z,100864.51
2023-01-31T01:02:36.105Z,100866.82
2023-01-31T01:03:35.012Z,100865.98
2023-01-31T01:04:35.087Z,100861.98
2023-01-31T01:05:35.293Z,100863.17
2023-01-31T01:06:34.861Z,100872.45
2023-01-31T01:07:35.551Z,100876.5
2023-01-31T01:08:35.007Z,100877.34
2023-01-31T01:09:34.471Z,100875.53
2023-01-31T01:10:34.339Z,100877.85
2023-01-31T01:11:35.621Z,100873.56
2023-01-31T01:12:34.334Z,100876.37
2023-01-31T01:13:33.957Z,100881.04
2023-01-31T01:14:34.327Z,100877.11
2023-01-31T01:15:33.655Z,100873.45
2023-01-31T01:16:34.733Z,100875.42
2023-01-31T01:17:33.359Z,100876.03
2023-01-31T01:18:33.261Z,100876.49
2023-01-31T01:19:33.319Z,100874.81
2023-01-31T01:20:33.017Z,100880.59
2023-01-31T01:21:32.930Z,100875.86
2023-01-31T01:22:32.835Z,100876.49
2023-01-31T01:23:32.682Z,100873.67
2023-01-31T01:24:32.599Z,100875.86
2023-01-31T01:25:32.440Z,100872.82
2023-01-31T01:26:33.535Z,100881.61
2023-01-31T01:27:32.176Z,100875.64
2023-01-31T01:28:32.103Z,100879.51
2023-01-31T01:29:31.967Z,100886.54
2023-01-31T01:30:31.833Z,100879.75
2023-01-31T01:31:34.496Z,100875.65
2023-01-31T01:32:31.605Z,100881.2
2023-01-31T01:33:31.463Z,100882.95
2023-01-31T01:34:31.369Z,100883.12
2023-01-31T01:35:31.267Z,100886.15
2023-01-31T01:36:32.138Z,100880.49
2023-01-31T01:37:30.993Z,100880.43
2023-01-31T01:38:30.942Z,100883.14
2023-01-31T01:39:31.739Z,100877.68
2023-01-31T01:40:30.679Z,100885.09
2023-01-31T01:41:30.605Z,100879.2
2023-01-31T01:42:30.492Z,100876.94
2023-01-31T01:43:30.359Z,100879.42
2023-01-31T01:44:30.192Z,100874.07
2023-01-31T01:45:30.131Z,100877.28
2023-01-31T01:46:30.046Z,100879.03
2023-01-31T01:47:29.847Z,100881.72
2023-01-31T01:48:29.804Z,100878.4
2023-01-31T01:49:29.584Z,100877
2023-01-31T01:50:29.604Z,100875.04
2023-01-31T01:51:29.506Z,100877.11
2023-01-31T01:52:29.309Z,100880.27
2023-01-31T01:53:29.153Z,100878.4
2023-01-31T01:54:28.990Z,100878.75
2023-01-31T01:55:28.919Z,100879.09
2023-01-31T01:56:28.886Z,100881
2023-01-31T01:57:28.739Z,100879.32
2023-01-31T01:58:28.538Z,100873.76
2023-01-31T01:59:28.380Z,100870.39
2023-01-31T02:00:28.303Z,100873.14
2023-01-31T02:01:28.190Z,100872.17
2023-01-31T02:02:28.133Z,100869.26
2023-01-31T02:03:27.909Z,100870.72
2023-01-31T02:04:27.860Z,100872.5
2023-01-31T02:05:27.807Z,100872.84
2023-01-31T02:06:27.561Z,100877.57
2023-01-31T02:07:27.585Z,100868.31
2023-01-31T02:08:27.334Z,100869.15
2023-01-31T02:09:27.230Z,100869.54
2023-01-31T02:10:27.172Z,100872.4
2023-01-31T02:11:28.015Z,100877.25
2023-01-31T02:12:26.865Z,100875.32
2023-01-31T02:13:26.777Z,100876.22
2023-01-31T02:14:26.643Z,100874.87
2023-01-31T02:15:26.610Z,100876.22
2023-01-31T02:16:26.412Z,100871.4
2023-01-31T02:17:26.349Z,100873.82
2023-01-31T02:18:26.255Z,100872.51
2023-01-31T02:19:26.126Z,100870.32
2023-01-31T02:20:25.990Z,100873.35
2023-01-31T02:21:25.927Z,100873.76
2023-01-31T02:22:25.804Z,100873.82
2023-01-31T02:23:25.608Z,100876.34
2023-01-31T02:24:25.495Z,100883.48
2023-01-31T02:25:26.373Z,100877.35
2023-01-31T02:26:25.273Z,100873.46
2023-01-31T02:27:25.150Z,100872.96
2023-01-31T02:28:25.027Z,100879.89
2023-01-31T02:29:25.025Z,100878.98
2023-01-31T02:30:24.820Z,100877.85
2023-01-31T02:31:24.806Z,100873.59
2023-01-31T02:32:24.578Z,100870.62
2023-01-31T02:33:24.483Z,100870.28
2023-01-31T02:34:24.364Z,100868.57
2023-01-31T02:35:25.211Z,100862.07
2023-01-31T02:36:24.081Z,100865.21
2023-01-31T02:37:25.083Z,100866.84
2023-01-31T02:38:23.927Z,100866.96
2023-01-31T02:39:23.874Z,100862.85
2023-01-31T02:40:23.717Z,100861.96
2023-01-31T02:41:23.520Z,100856.23
2023-01-31T02:42:23.414Z,100859.53
2023-01-31T02:43:23.275Z,100854.87
2023-01-31T02:44:23.195Z,100860.1
2023-01-31T02:45:24.037Z,100861.79
2023-01-31T02:46:22.951Z,100857.96
2023-01-31T02:47:22.851Z,100858.53
2023-01-31T02:48:23.715Z,100854.31
2023-01-31T02:49:22.630Z,100852.53
2023-01-31T02:50:22.566Z,100860.95
2023-01-31T02:51:22.546Z,100860.38
2023-01-31T02:52:22.324Z,100856.57
2023-01-31T02:53:22.158Z,100860.89
2023-01-31T02:54:22.153Z,100851.96
2023-01-31T02:55:23.919Z,100857.92
2023-01-31T02:56:22.027Z,100856.25
2023-01-31T02:57:21.757Z,100853.55
2023-01-31T02:58:22.752Z,100858.65
2023-01-31T02:59:21.561Z,100858.08
2023-01-31T03:00:21.451Z,100862.48
2023-01-31T03:01:21.366Z,100858.1
2023-01-31T03:02:21.234Z,100861.51
2023-01-31T03:03:21.151Z,100859.95
2023-01-31T03:04:21.114Z,100860.1
2023-01-31T03:05:23.175Z,100865.06
2023-01-31T03:06:20.890Z,100860.5
2023-01-31T03:07:20.712Z,100859.45
2023-01-31T03:08:20.596Z,100865.01
2023-01-31T03:09:20.506Z,100862.7
2023-01-31T03:10:20.339Z,100863.54
2023-01-31T03:11:20.213Z,100865.51
2023-01-31T03:12:20.145Z,100859.88
2023-01-31T03:13:20.001Z,100858.03
2023-01-31T03:14:19.923Z,100863.1
2023-01-31T03:15:21.040Z,100865.43
2023-01-31T03:16:19.672Z,100867.03
2023-01-31T03:17:19.551Z,100861.18
2023-01-31T03:18:19.472Z,100856.7
2023-01-31T03:19:19.335Z,100854.65
2023-01-31T03:20:19.188Z,100858.38
2023-01-31T03:21:19.053Z,100858.53
2023-01-31T03:22:19.028Z,100860.74
2023-01-31T03:23:19.888Z,100861.41
2023-01-31T03:24:18.764Z,100863.36
2023-01-31T03:25:19.097Z,100858.53
2023-01-31T03:26:18.534Z,100855.96
2023-01-31T03:27:18.461Z,100858.64
2023-01-31T03:28:18.330Z,100859.15
2023-01-31T03:29:18.276Z,100859.78
2023-01-31T03:30:18.127Z,100861
2023-01-31T03:31:18.179Z,100860.62
2023-01-31T03:32:17.939Z,100864.1
2023-01-31T03:33:17.780Z,100864.56
2023-01-31T03:34:17.702Z,100865.67
2023-01-31T03:35:17.570Z,100863.19
2023-01-31T03:36:17.449Z,100864.78
2023-01-31T03:37:17.355Z,100861.07
2023-01-31T03:38:17.263Z,100865.78
2023-01-31T03:39:17.197Z,100866.46
2023-01-31T03:40:17.082Z,100872.65
2023-01-31T03:41:16.912Z,100875.73
2023-01-31T03:42:16.891Z,100878.54
2023-01-31T03:43:17.654Z,100877.43
2023-01-31T03:44:16.613Z,100875.06
2023-01-31T03:45:16.508Z,100869.62
2023-01-31T03:46:16.328Z,100870.18
2023-01-31T03:47:16.345Z,100871.35
2023-01-31T03:48:16.145Z,100873.64
2023-01-31T03:49:16.079Z,100878.6
2023-01-31T03:50:16.004Z,100876.34
2023-01-31T03:51:15.808Z,100884.17
2023-01-31T03:52:15.872Z,100883.78
2023-01-31T03:53:15.632Z,100888.77
2023-01-31T03:54:15.560Z,100886.14
2023-01-31T03:55:15.352Z,100885.17
2023-01-31T03:56:15.235Z,100885.29
2023-01-31T03:57:15.176Z,100883.59
2023-01-31T03:58:15.021Z,100887.64
2023-01-31T03:59:14.984Z,100887.65
2023-01-31T04:00:14.832Z,100886.01
2023-01-31T04:01:14.825Z,100889.84
2023-01-31T04:02:14.688Z,100887.07
2023-01-31T04:03:14.559Z,100881.51
2023-01-31T04:04:14.484Z,100885.89
2023-01-31T04:05:14.278Z,100887.86
2023-01-31T04:06:14.137Z,100891.11
2023-01-31T04:07:14.030Z,100895.51
2023-01-31T04:08:13.908Z,100893.32
2023-01-31T04:09:14.828Z,100891.68
2023-01-31T04:10:13.751Z,100891.81
2023-01-31T04:11:13.625Z,100893.15
2023-01-31T04:12:13.486Z,100891.85
2023-01-31T04:13:13.460Z,100887.07
2023-01-31T04:14:13.327Z,100884.78
2023-01-31T04:15:13.136Z,100886.23
2023-01-31T04:16:13.032Z,100889.34
2023-01-31T04:17:13.959Z,100887.14
2023-01-31T04:18:12.865Z,100883.09
2023-01-31T04:19:12.777Z,100889.43
2023-01-31T04:20:12.588Z,100890
2023-01-31T04:21:12.541Z,100888.65
2023-01-31T04:22:12.386Z,100891.85
2023-01-31T04:23:12.332Z,100895.73
2023-01-31T04:24:12.158Z,100894.89
2023-01-31T04:25:12.113Z,100902.76
2023-01-31T04:26:12.003Z,100911.01
2023-01-31T04:27:11.920Z,100910.32
2023-01-31T04:28:11.747Z,100910
2023-01-31T04:29:11.677Z,100908.14
2023-01-31T04:30:11.489Z,100915.95
2023-01-31T04:31:11.506Z,100915.61
2023-01-31T04:32:11.362Z,100917.75
2023-01-31T04:33:11.393Z,100920.62
2023-01-31T04:34:11.182Z,100918.48
2023-01-31T04:35:11.078Z,100912.85
2023-01-31T04:36:10.938Z,100914.89
2023-01-31T04:37:10.838Z,100916.62
2023-01-31T04:38:10.764Z,100916.62
2023-01-31T04:39:10.573Z,100917.13
2023-01-31T04:40:10.451Z,100920.67
2023-01-31T04:41:10.405Z,100922.81
2023-01-31T04:42:10.257Z,100922.85
2023-01-31T04:43:10.287Z,100923.64
2023-01-31T04:44:10.047Z,100926.57
2023-01-31T04:45:09.990Z,100928.82
2023-01-31T04:46:09.871Z,100931.33
2023-01-31T04:47:09.716Z,100929.76
2023-01-31T04:48:09.657Z,100930.67
2023-01-31T04:49:09.466Z,100924.26
2023-01-31T04:50:09.435Z,100928.32
2023-01-31T04:51:09.267Z,100931.39
2023-01-31T04:52:09.136Z,100931.17
2023-01-31T04:53:09.028Z,100926.67
2023-01-31T04:54:08.945Z,100931.23
2023-01-31T04:55:08.857Z,100927.47
2023-01-31T04:56:08.745Z,100929.03
2023-01-31T04:57:08.606Z,100928.35
2023-01-31T04:58:09.511Z,100926.18
2023-01-31T04:59:08.436Z,100931
2023-01-31T05:00:08.244Z,100927.85
2023-01-31T05:01:08.159Z,100925.79
2023-01-31T05:02:08.030Z,100927.96
2023-01-31T05:03:07.951Z,100928.47
2023-01-31T05:04:07.819Z,100935.45
2023-01-31T05:05:07.782Z,100928.09
2023-01-31T05:06:07.579Z,100931
2023-01-31T05:07:07.509Z,100936.51
2023-01-31T05:08:07.366Z,100942.12
2023-01-31T05:09:07.265Z,100931.67
2023-01-31T05:10:07.205Z,100939.59
2023-01-31T05:11:08.050Z,100940.21
2023-01-31T05:12:06.927Z,100944.82
2023-01-31T05:13:06.892Z,100943.14
2023-01-31T05:14:07.784Z,100947.18
2023-01-31T05:15:06.680Z,100951.75
2023-01-31T05:16:06.469Z,100951.45
2023-01-31T05:17:06.405Z,100955.45
2023-01-31T05:18:06.310Z,100959.75
2023-01-31T05:19:06.208Z,100947.96
2023-01-31T05:20:06.054Z,100950.49
2023-01-31T05:21:05.946Z,100948.98
2023-01-31T05:22:05.925Z,100954.65
2023-01-31T05:23:05.722Z,100963.79
2023-01-31T05:24:05.661Z,100961.43
2023-01-31T05:25:05.567Z,100956.95
2023-01-31T05:32:06.941Z,100962.51
2023-01-31T05:46:03.429Z,100977.68
2023-01-31T05:47:03.245Z,100977.58
2023-01-31T05:48:03.084Z,100977.85
2023-01-31T05:51:02.761Z,100980.89
2023-01-31T05:52:02.718Z,100979.37
2023-01-31T05:53:02.549Z,100977.68
2023-01-31T05:54:02.416Z,100977.5
2023-01-31T05:55:02.396Z,100980.15
2023-01-31T05:56:02.203Z,100982.46
2023-01-31T05:57:02.101Z,100989.04
2023-01-31T05:58:02.054Z,100983.64
2023-01-31T05:59:02.043Z,100986.84
2023-01-31T06:00:01.793Z,100983.64
2023-01-31T06:01:01.720Z,100993.19
2023-01-31T06:02:01.716Z,100989.04
2023-01-31T06:03:02.524Z,100995.95
2023-01-31T06:04:01.440Z,100984.09
2023-01-31T06:05:01.346Z,100997.67
2023-01-31T06:06:01.242Z,100993.75
2023-01-31T06:07:01.052Z,100994.37
2023-01-31T06:08:02.021Z,100995.89
2023-01-31T06:09:00.858Z,100992.19
2023-01-31T06:10:01.827Z,100999.78
2023-01-31T06:11:00.620Z,100998.58
2023-01-31T06:12:00.505Z,100998.03
2023-01-31T06:14:00.364Z,101000.54
2023-01-31T06:15:00.266Z,101003.46
2023-01-31T06:16:00.121Z,101005.6
2023-01-31T06:16:59.991Z,101004.43
2023-01-31T06:18:59.725Z,101013.52
2023-01-31T06:19:59.819Z,101006.85
2023-01-31T06:20:59.481Z,101014.37
2023-01-31T06:21:59.410Z,101020.43
2023-01-31T06:23:59.283Z,101016.29
2023-01-31T06:24:59.120Z,101012.96
2023-01-31T06:25:59.040Z,101018.19
2023-01-31T06:26:58.909Z,101012.07
2023-01-31T06:27:58.772Z,101019.76
2023-01-31T06:28:58.654Z,101021.12
2023-01-31T06:29:58.808Z,101020.59
2023-01-31T06:30:58.544Z,101025.28
2023-01-31T06:31:58.409Z,101030.78
2023-01-31T06:32:58.296Z,101029.71
2023-01-31T06:34:58.062Z,101028.31
2023-01-31T06:35:59.055Z,101032.62
2023-01-31T06:36:57.849Z,101031.06
2023-01-31T06:37:57.775Z,101026.85
2023-01-31T06:38:57.693Z,101039.71
2023-01-31T06:39:57.498Z,101032.9
2023-01-31T06:40:57.408Z,101036.67
2023-01-31T06:41:57.285Z,101036.28
2023-01-31T06:42:57.251Z,101036.22
2023-01-31T06:43:57.118Z,101034.03
2023-01-31T06:44:57.011Z,101035.17
2023-01-31T06:45:57.046Z,101034.87
2023-01-31T06:46:56.797Z,101039.53
2023-01-31T06:48:56.727Z,101040.37
2023-01-31T06:49:56.504Z,101044.21
2023-01-31T06:50:56.433Z,101048.13
2023-01-31T06:51:56.246Z,101050.44
2023-01-31T06:52:56.219Z,101053.43
2023-01-31T06:53:56.043Z,101054.39
2023-01-31T06:54:55.907Z,101054.93
2023-01-31T06:55:55.889Z,101057.02
2023-01-31T06:56:55.803Z,101059.1
2023-01-31T06:57:55.689Z,101053.98
2023-01-31T06:58:55.607Z,101053.6
2023-01-31T08:22:46.605Z,101070.76
2023-01-31T08:23:46.482Z,101068.14
2023-01-31T08:24:46.356Z,101071.85
2023-01-31T08:26:46.205Z,101076.72
2023-01-31T08:27:46.105Z,101079.37
2023-01-31T08:28:45.971Z,101080.06
2023-01-31T08:29:45.895Z,101078.36
2023-01-31T08:31:45.692Z,101079.48
2023-01-31T08:32:45.544Z,101078.4
2023-01-31T09:58:36.591Z,101092.83
2023-01-31T09:59:36.571Z,101100.14
2023-01-31T10:00:36.567Z,101092.32
2023-01-31T10:02:36.231Z,101093.87
2023-01-31T10:03:36.172Z,101092.35
2023-01-31T10:04:36.038Z,101096.7
2023-01-31T10:05:35.914Z,101086.4
2023-01-31T10:06:35.828Z,101095.01
2023-01-31T10:07:35.699Z,101088.26
2023-01-31T10:08:35.734Z,101082.32
2023-01-31T10:09:35.530Z,101084.17
2023-01-31T10:55:58.668Z,101043.38
2023-01-31T10:56:58.621Z,101038.32
2023-01-31T10:57:58.720Z,101035.19
2023-01-31T10:58:58.685Z,101035.44
2023-01-31T10:59:46.032Z,101030.8
